Time;durP1;ratioP1;P1;durP2;ratioP2;P2;SDS_P1;SDS_P2;PMS_P1;PMS_P2;Temp;Humidity;BMP_temperature;BMP_pressure;BME280_temperature;BME280_humidity;BME280_pressure;Samples;Min_cycle;Max_cycle;Signal;HPM_P1;HPM_P2
2021/09/09 00:00:16;;;;;;;38.30;29.50;;;17.90;99.90;;;;;;4912164;29;37033;-80
2021/09/09 00:02:42;;;;;;;40.58;33.05;;;17.80;99.90;;;;;;4915632;29;38846;-80
2021/09/09 00:05:09;;;;;;;36.65;30.55;;;17.80;99.90;;;;;;4929165;29;39248;-82
2021/09/09 00:07:36;;;;;;;42.20;31.98;;;17.70;99.90;;;;;;4913885;29;39232;-81
2021/09/09 00:10:04;;;;;;;49.10;36.55;;;17.60;99.90;;;;;;4930011;28;38021;-80
2021/09/09 00:12:30;;;;;;;44.33;32.78;;;17.60;99.90;;;;;;4910974;29;39584;-81
2021/09/09 00:14:56;;;;;;;39.50;32.15;;;17.50;99.90;;;;;;4931450;29;38616;-82
2021/09/09 00:17:23;;;;;;;39.35;29.95;;;17.50;99.90;;;;;;4913383;29;39258;-82
2021/09/09 00:19:49;;;;;;;46.42;34.75;;;17.40;99.90;;;;;;4917039;29;38165;-82
2021/09/09 00:22:16;;;;;;;39.97;32.55;;;17.40;99.90;;;;;;4923161;29;37560;-82
2021/09/09 00:24:42;;;;;;;40.55;32.17;;;17.40;99.90;;;;;;4940629;29;39636;-81
2021/09/09 00:27:08;;;;;;;40.85;31.25;;;17.30;99.90;;;;;;4940511;29;39681;-82
2021/09/09 00:29:34;;;;;;;46.97;35.22;;;17.30;99.90;;;;;;4938226;28;38566;-82
2021/09/09 00:32:00;;;;;;;39.42;31.60;;;17.30;99.90;;;;;;4925927;29;39223;-81
2021/09/09 00:34:26;;;;;;;40.47;30.77;;;17.20;99.90;;;;;;4937397;29;39285;-82
2021/09/09 00:36:52;;;;;;;40.30;32.55;;;17.10;99.90;;;;;;4918507;29;38567;-81
2021/09/09 00:39:18;;;;;;;41.10;34.17;;;17.10;99.90;;;;;;4943435;28;37524;-82
2021/09/09 00:41:44;;;;;;;45.70;35.70;;;17.10;99.90;;;;;;4917790;29;37907;-81
2021/09/09 00:44:24;;;;;;;43.20;32.78;;;17.10;99.90;;;;;;4933404;29;38646;-81
2021/09/09 00:47:01;;;;;;;40.83;34.30;;;17.10;99.90;;;;;;4930006;28;39560;-81
2021/09/09 00:49:28;;;;;;;42.03;32.88;;;17.00;99.90;;;;;;4929824;29;48799;-81
2021/09/09 00:51:55;;;;;;;43.67;33.70;;;17.00;99.90;;;;;;4931277;28;39341;-81
2021/09/09 00:54:21;;;;;;;44.88;35.17;;;17.00;99.90;;;;;;4913101;29;37669;-82
2021/09/09 00:56:49;;;;;;;46.80;34.00;;;17.00;99.90;;;;;;4927989;28;36898;-81
2021/09/09 00:59:15;;;;;;;47.00;34.50;;;17.00;99.90;;;;;;4908653;29;36280;-82
2021/09/09 01:01:42;;;;;;;46.08;35.75;;;16.90;99.90;;;;;;4930363;28;38621;-81
2021/09/09 01:04:08;;;;;;;48.90;35.42;;;16.90;99.90;;;;;;4928110;28;39322;-81
2021/09/09 01:06:34;;;;;;;45.25;35.85;;;16.90;99.90;;;;;;4911047;29;39085;-81
2021/09/09 01:09:01;;;;;;;46.40;33.95;;;16.90;99.90;;;;;;4925640;28;37485;-82
2021/09/09 01:11:27;;;;;;;45.55;34.58;;;16.90;99.90;;;;;;4926713;28;47342;-81
2021/09/09 01:14:10;;;;;;;46.80;34.60;;;16.80;99.90;;;;;;4925652;28;39152;-82
2021/09/09 01:16:37;;;;;;;42.58;34.38;;;16.80;99.90;;;;;;4922202;28;48581;-82
2021/09/09 01:19:05;;;;;;;47.88;36.97;;;16.80;99.90;;;;;;4926532;28;37145;-81
2021/09/09 01:21:32;;;;;;;49.85;36.63;;;16.80;99.90;;;;;;4927094;28;38840;-83
2021/09/09 01:24:00;;;;;;;51.88;38.55;;;16.80;99.90;;;;;;4909761;29;39676;-81
2021/09/09 01:26:29;;;;;;;51.55;38.25;;;16.80;99.90;;;;;;4907086;28;40336;-81
2021/09/09 01:28:57;;;;;;;46.10;34.72;;;16.70;99.90;;;;;;4927075;29;38165;-82
2021/09/09 01:31:24;;;;;;;44.08;34.78;;;16.70;99.90;;;;;;4906956;29;38742;-82
2021/09/09 01:33:56;;;;;;;44.25;34.83;;;16.70;99.90;;;;;;4925129;29;39592;-81
2021/09/09 01:36:23;;;;;;;48.15;35.83;;;16.70;99.90;;;;;;4924899;29;36747;-81
2021/09/09 01:38:50;;;;;;;45.35;36.45;;;16.60;99.90;;;;;;4920267;28;37407;-81
2021/09/09 01:41:16;;;;;;;50.47;37.05;;;16.60;99.90;;;;;;4922318;29;38564;-79
2021/09/09 01:43:42;;;;;;;44.75;34.13;;;16.60;99.90;;;;;;4925067;28;38663;-82
2021/09/09 01:46:08;;;;;;;47.92;37.20;;;16.50;99.90;;;;;;4908544;29;37377;-82
2021/09/09 01:48:34;;;;;;;39.70;33.13;;;16.50;99.90;;;;;;4924283;28;37372;-82
2021/09/09 01:51:00;;;;;;;42.28;33.92;;;16.50;99.90;;;;;;4923280;28;39550;-81
2021/09/09 01:53:26;;;;;;;43.78;33.92;;;16.50;99.90;;;;;;4921379;28;46652;-82
2021/09/09 01:55:52;;;;;;;48.85;37.72;;;16.50;99.90;;;;;;4924733;28;37884;-82
2021/09/09 01:58:18;;;;;;;43.20;33.80;;;16.50;99.90;;;;;;4909939;28;38261;-82
2021/09/09 02:00:45;;;;;;;40.75;33.30;;;16.40;99.90;;;;;;4907732;28;39798;-81
2021/09/09 02:03:11;;;;;;;46.33;34.60;;;16.40;99.90;;;;;;4922366;28;39109;-82
2021/09/09 02:05:37;;;;;;;47.80;36.97;;;16.40;99.90;;;;;;4906853;29;38609;-81
2021/09/09 02:08:03;;;;;;;44.22;33.67;;;16.40;99.90;;;;;;4923453;28;38364;-82
2021/09/09 02:10:29;;;;;;;49.70;34.75;;;16.40;99.90;;;;;;4920804;28;38200;-82
2021/09/09 02:12:55;;;;;;;47.53;35.60;;;16.30;99.90;;;;;;4923643;28;38672;-83
2021/09/09 02:15:21;;;;;;;44.38;34.72;;;16.30;99.90;;;;;;4904944;28;40337;-82
2021/09/09 02:17:48;;;;;;;44.65;34.10;;;16.30;99.90;;;;;;4922448;28;37537;-82
2021/09/09 02:20:14;;;;;;;43.25;34.65;;;16.30;99.90;;;;;;4905577;28;39517;-82
2021/09/09 02:22:40;;;;;;;44.58;35.50;;;16.30;99.90;;;;;;4922536;29;38905;-82
2021/09/09 02:25:06;;;;;;;45.80;32.80;;;16.30;99.90;;;;;;4923814;29;38308;-81
2021/09/09 02:27:33;;;;;;;42.92;34.47;;;16.30;99.90;;;;;;4924921;29;37131;-82
2021/09/09 02:29:59;;;;;;;42.63;33.15;;;16.30;99.90;;;;;;4911134;29;40265;-81
2021/09/09 02:32:25;;;;;;;38.72;31.35;;;16.20;99.90;;;;;;4905291;29;38856;-83
2021/09/09 02:34:51;;;;;;;45.95;35.33;;;16.20;99.90;;;;;;4907263;29;39229;-81
2021/09/09 02:37:17;;;;;;;45.38;33.35;;;16.20;99.90;;;;;;4906582;29;37574;-82
2021/09/09 02:39:46;;;;;;;39.90;31.65;;;16.20;99.90;;;;;;4907204;29;38566;-81
2021/09/09 02:42:14;;;;;;;42.20;32.63;;;16.20;99.90;;;;;;4905509;29;40465;-82
2021/09/09 02:44:40;;;;;;;39.78;32.85;;;16.20;99.90;;;;;;4906324;28;37347;-82
2021/09/09 02:47:07;;;;;;;39.17;31.35;;;16.20;99.90;;;;;;4924037;28;37078;-82
2021/09/09 02:49:33;;;;;;;40.38;32.17;;;16.20;99.90;;;;;;4925229;29;38999;-82
2021/09/09 02:51:59;;;;;;;33.33;28.15;;;16.20;99.90;;;;;;4921316;28;39243;-82
2021/09/09 02:54:25;;;;;;;37.65;30.45;;;16.30;99.90;;;;;;4906889;29;38771;-82
2021/09/09 02:56:51;;;;;;;35.35;27.60;;;16.30;99.90;;;;;;4925075;28;38633;-82
2021/09/09 02:59:17;;;;;;;31.98;27.10;;;16.40;99.90;;;;;;4925620;28;39497;-82
2021/09/09 03:01:43;;;;;;;36.70;28.80;;;16.40;99.90;;;;;;4908701;28;38297;-81
2021/09/09 03:04:10;;;;;;;36.05;27.95;;;16.40;99.90;;;;;;4925626;28;38532;-82
2021/09/09 03:06:36;;;;;;;32.83;27.55;;;16.40;99.90;;;;;;4906494;29;37874;-81
2021/09/09 03:09:02;;;;;;;33.22;27.85;;;16.40;99.90;;;;;;4908278;29;39162;-81
2021/09/09 03:11:28;;;;;;;39.70;28.90;;;16.40;99.90;;;;;;4925034;29;38318;-82
2021/09/09 03:13:54;;;;;;;35.50;27.48;;;16.40;99.90;;;;;;4910727;28;37285;-82
2021/09/09 03:16:20;;;;;;;35.58;27.33;;;16.40;99.90;;;;;;4927069;29;37172;-82
2021/09/09 03:18:46;;;;;;;36.03;27.13;;;16.40;99.90;;;;;;4922883;28;37528;-82
2021/09/09 03:21:12;;;;;;;33.60;26.30;;;16.40;99.90;;;;;;4906583;29;39686;-82
2021/09/09 03:23:38;;;;;;;30.95;25.13;;;16.40;99.90;;;;;;4909592;29;40385;-82
2021/09/09 03:26:05;;;;;;;43.38;29.67;;;16.50;99.90;;;;;;4923541;28;37981;-81
2021/09/09 03:28:31;;;;;;;39.13;26.65;;;16.40;99.90;;;;;;4908773;29;39639;-82
2021/09/09 03:30:57;;;;;;;37.28;26.80;;;16.40;99.90;;;;;;4917465;28;38100;-82
2021/09/09 03:33:23;;;;;;;33.95;26.50;;;16.40;99.90;;;;;;4919560;29;38547;-82
2021/09/09 03:35:49;;;;;;;32.13;26.45;;;16.40;99.90;;;;;;4923409;28;36808;-82
2021/09/09 03:38:15;;;;;;;32.47;24.88;;;16.40;99.90;;;;;;4905462;28;39185;-81
2021/09/09 03:40:41;;;;;;;29.83;24.33;;;16.40;99.90;;;;;;4909273;29;39993;-82
2021/09/09 03:43:08;;;;;;;29.90;25.60;;;16.40;99.90;;;;;;4907964;29;38868;-81
2021/09/09 03:45:34;;;;;;;34.00;26.40;;;16.30;99.90;;;;;;4908676;29;37504;-82
2021/09/09 03:48:00;;;;;;;35.05;25.75;;;16.30;99.90;;;;;;4908010;29;39802;-82
2021/09/09 03:50:26;;;;;;;34.90;26.48;;;16.30;99.90;;;;;;4923658;28;39375;-82
2021/09/09 03:52:52;;;;;;;34.22;25.60;;;16.20;99.90;;;;;;4926514;28;39742;-81
2021/09/09 03:55:18;;;;;;;32.92;26.05;;;16.20;99.90;;;;;;4926376;29;37314;-82
2021/09/09 03:57:46;;;;;;;32.25;23.55;;;16.20;99.90;;;;;;4926903;29;40644;-83
2021/09/09 04:00:12;;;;;;;33.70;24.58;;;16.20;99.90;;;;;;4925846;28;38944;-81
2021/09/09 04:02:38;;;;;;;33.78;24.27;;;16.20;99.90;;;;;;4925531;29;38019;-82
2021/09/09 04:05:05;;;;;;;34.50;24.67;;;16.20;99.90;;;;;;4910932;29;36150;-82
2021/09/09 04:07:31;;;;;;;31.30;25.88;;;16.20;99.90;;;;;;4909802;29;47486;-82
2021/09/09 04:09:57;;;;;;;30.08;24.63;;;16.30;99.90;;;;;;4910218;28;39688;-82
2021/09/09 04:12:23;;;;;;;26.80;22.50;;;16.30;99.90;;;;;;4924247;29;39593;-82
2021/09/09 04:14:50;;;;;;;26.35;22.48;;;16.30;99.90;;;;;;4925473;28;37570;-82
2021/09/09 04:17:16;;;;;;;31.30;23.83;;;16.30;99.90;;;;;;4926651;28;39163;-81
2021/09/09 04:19:42;;;;;;;29.25;24.58;;;16.30;99.90;;;;;;4911116;29;38880;-82
2021/09/09 04:22:09;;;;;;;28.40;23.05;;;16.20;99.90;;;;;;4927575;28;38690;-83
2021/09/09 04:24:36;;;;;;;26.50;22.58;;;16.20;99.90;;;;;;4925396;29;38194;-82
2021/09/09 04:27:03;;;;;;;27.45;23.00;;;16.20;99.90;;;;;;4909544;29;39481;-81
2021/09/09 04:29:29;;;;;;;27.20;22.45;;;16.20;99.90;;;;;;4910516;29;40314;-82
2021/09/09 04:31:55;;;;;;;28.73;22.80;;;16.20;99.90;;;;;;4926848;29;38224;-83
2021/09/09 04:34:21;;;;;;;29.15;23.58;;;16.20;99.90;;;;;;4926254;28;37448;-82
2021/09/09 04:36:48;;;;;;;28.83;22.50;;;16.20;99.90;;;;;;4910935;29;40357;-81
2021/09/09 04:39:14;;;;;;;27.50;22.50;;;16.20;99.90;;;;;;4917391;29;37703;-82
2021/09/09 04:41:40;;;;;;;26.88;21.20;;;16.20;99.90;;;;;;4925733;28;38555;-81
2021/09/09 04:44:06;;;;;;;30.80;23.42;;;16.20;99.90;;;;;;4907765;29;37736;-82
2021/09/09 04:46:33;;;;;;;26.40;22.17;;;16.10;99.90;;;;;;4923357;29;38940;-82
2021/09/09 04:48:59;;;;;;;29.30;24.08;;;16.10;99.90;;;;;;4925490;29;37555;-82
2021/09/09 04:51:25;;;;;;;28.98;23.98;;;16.10;99.90;;;;;;4909472;29;38723;-82
2021/09/09 04:53:52;;;;;;;26.23;21.42;;;16.00;99.90;;;;;;4911098;29;38081;-82
2021/09/09 04:56:18;;;;;;;26.17;21.48;;;16.00;99.90;;;;;;4925494;28;38876;-82
2021/09/09 04:58:44;;;;;;;28.17;22.70;;;16.00;99.90;;;;;;4911572;29;39358;-82
2021/09/09 05:01:10;;;;;;;32.28;23.77;;;16.00;99.90;;;;;;4921954;28;38101;-81
2021/09/09 05:03:36;;;;;;;26.50;23.00;;;16.00;99.90;;;;;;4926145;28;37345;-82
2021/09/09 05:06:02;;;;;;;26.88;22.80;;;16.10;99.90;;;;;;4909874;29;37575;-81
2021/09/09 05:08:28;;;;;;;29.38;22.33;;;16.10;99.90;;;;;;4906786;28;37640;-82
2021/09/09 05:10:55;;;;;;;28.80;21.55;;;16.20;99.90;;;;;;4926358;28;39435;-83
2021/09/09 05:13:23;;;;;;;30.55;21.00;;;16.30;99.90;;;;;;4926574;28;37004;-82
2021/09/09 05:15:49;;;;;;;29.70;21.02;;;16.30;99.90;;;;;;4915233;29;36161;-83
2021/09/09 05:18:16;;;;;;;27.42;21.63;;;16.30;99.90;;;;;;4918495;29;38999;-82
2021/09/09 05:20:42;;;;;;;26.60;21.85;;;16.40;99.90;;;;;;4916544;29;39216;-83
2021/09/09 05:23:08;;;;;;;29.17;20.77;;;16.30;99.90;;;;;;4913175;28;35919;-82
2021/09/09 05:25:34;;;;;;;31.05;22.40;;;16.30;99.90;;;;;;4911404;29;37912;-82
2021/09/09 05:28:00;;;;;;;29.83;21.70;;;16.30;99.90;;;;;;4919970;29;39127;-82
2021/09/09 05:30:26;;;;;;;24.30;19.48;;;16.40;99.90;;;;;;4908637;28;38947;-82
2021/09/09 05:32:52;;;;;;;25.08;21.00;;;16.40;99.90;;;;;;4927588;28;37593;-82
2021/09/09 05:35:18;;;;;;;27.83;21.58;;;16.40;99.90;;;;;;4922941;28;38239;-82
2021/09/09 05:37:44;;;;;;;27.65;20.33;;;16.30;99.90;;;;;;4911680;28;38923;-81
2021/09/09 05:40:11;;;;;;;23.73;20.65;;;16.40;99.90;;;;;;4925002;28;38344;-82
2021/09/09 05:42:37;;;;;;;27.88;21.38;;;16.40;99.90;;;;;;4933630;28;36434;-82
2021/09/09 05:45:04;;;;;;;25.50;21.45;;;16.40;99.90;;;;;;4909420;29;39609;-81
2021/09/09 05:47:30;;;;;;;27.63;21.70;;;16.50;99.90;;;;;;4932826;28;38071;-83
2021/09/09 05:49:57;;;;;;;23.40;19.85;;;16.50;99.90;;;;;;4914927;28;38137;-82
2021/09/09 05:52:23;;;;;;;27.25;20.40;;;16.50;99.90;;;;;;4912001;28;36421;-81
2021/09/09 05:54:49;;;;;;;24.42;21.08;;;16.50;99.90;;;;;;4906160;29;37784;-80
2021/09/09 05:57:16;;;;;;;27.92;21.77;;;16.60;99.90;;;;;;4905045;28;39223;-81
2021/09/09 05:59:42;;;;;;;26.63;21.80;;;16.60;99.90;;;;;;4923407;28;38596;-82
2021/09/09 06:02:14;;;;;;;27.73;20.50;;;16.60;99.90;;;;;;4924772;28;37219;-81
2021/09/09 06:04:41;;;;;;;25.88;21.17;;;16.60;99.90;;;;;;4924532;28;39419;-81
2021/09/09 06:07:07;;;;;;;26.55;20.55;;;16.70;99.90;;;;;;4905966;28;37931;-82
2021/09/09 06:09:33;;;;;;;32.58;21.13;;;16.70;99.90;;;;;;4900087;28;37526;-81
2021/09/09 06:11:59;;;;;;;31.08;21.75;;;16.80;99.90;;;;;;4903249;29;34492;-81
2021/09/09 06:14:26;;;;;;;28.38;21.90;;;16.90;99.90;;;;;;4910860;29;37806;-81
2021/09/09 06:16:52;;;;;;;24.38;20.95;;;16.90;99.90;;;;;;4921581;28;41678;-82
2021/09/09 06:19:18;;;;;;;24.80;19.65;;;17.00;99.90;;;;;;4924332;29;38868;-81
2021/09/09 06:21:44;;;;;;;28.90;20.95;;;17.10;99.90;;;;;;4923688;28;37576;-82
2021/09/09 06:24:10;;;;;;;27.85;20.67;;;17.20;99.90;;;;;;4907691;28;38969;-81
2021/09/09 06:26:36;;;;;;;26.65;20.08;;;17.30;99.90;;;;;;4901394;29;38351;-82
2021/09/09 06:29:02;;;;;;;29.55;22.20;;;17.40;99.90;;;;;;4904440;29;39196;-81
2021/09/09 06:31:29;;;;;;;27.92;20.48;;;17.60;99.90;;;;;;4920562;28;37381;-81
2021/09/09 06:33:55;;;;;;;31.15;21.27;;;17.70;99.90;;;;;;4928574;29;38946;-81
2021/09/09 06:36:21;;;;;;;26.38;21.42;;;17.80;99.90;;;;;;4908580;29;39117;-82
2021/09/09 06:38:47;;;;;;;28.92;21.17;;;17.80;99.90;;;;;;4925670;28;38244;-81
2021/09/09 06:41:13;;;;;;;26.42;20.92;;;17.90;99.90;;;;;;4924156;28;37561;-82
2021/09/09 06:43:39;;;;;;;29.45;20.33;;;17.90;99.90;;;;;;4928411;28;39534;-83
2021/09/09 06:46:05;;;;;;;27.73;20.73;;;18.00;99.90;;;;;;4928987;28;38483;-83
2021/09/09 06:48:31;;;;;;;25.05;20.30;;;18.10;99.90;;;;;;4933694;29;38899;-83
2021/09/09 06:51:00;;;;;;;29.90;19.15;;;18.20;99.90;;;;;;4915628;29;36152;-82
2021/09/09 06:53:27;;;;;;;27.88;20.50;;;18.20;99.90;;;;;;4925107;28;47512;-82
2021/09/09 06:55:54;;;;;;;24.95;19.83;;;18.30;99.90;;;;;;4919175;29;39038;-83
2021/09/09 06:58:21;;;;;;;26.17;18.83;;;18.40;99.90;;;;;;4908970;29;39814;-83
2021/09/09 07:00:47;;;;;;;24.95;18.77;;;18.50;99.90;;;;;;4922827;28;37307;-81
2021/09/09 07:03:13;;;;;;;24.52;19.75;;;18.60;99.90;;;;;;4909015;29;37923;-80
2021/09/09 07:05:39;;;;;;;26.40;20.40;;;18.70;99.90;;;;;;4911407;29;37585;-80
2021/09/09 07:08:05;;;;;;;29.50;20.52;;;18.80;99.90;;;;;;4919261;28;39563;-81
2021/09/09 07:10:31;;;;;;;24.02;19.63;;;18.90;99.90;;;;;;4910239;29;36595;-83
2021/09/09 07:12:57;;;;;;;26.63;19.20;;;18.90;99.90;;;;;;4911335;29;37956;-81
2021/09/09 07:15:24;;;;;;;26.90;18.85;;;19.00;99.90;;;;;;4914611;28;38434;-81
2021/09/09 07:17:50;;;;;;;24.45;19.30;;;19.10;99.90;;;;;;4913156;29;37742;-79
2021/09/09 07:20:16;;;;;;;26.50;19.15;;;19.30;99.90;;;;;;4915443;28;38614;-80
2021/09/09 07:22:42;;;;;;;22.20;17.58;;;19.40;99.90;;;;;;4905244;28;37978;-81
2021/09/09 07:25:09;;;;;;;22.90;18.23;;;19.60;99.90;;;;;;4926010;28;37489;-78
2021/09/09 07:27:36;;;;;;;22.30;17.92;;;19.80;99.90;;;;;;4929119;28;38404;-78
2021/09/09 07:30:04;;;;;;;22.75;18.60;;;19.80;99.90;;;;;;4930402;29;37443;-80
2021/09/09 07:32:31;;;;;;;21.83;17.83;;;19.90;99.90;;;;;;4912076;29;39684;-80
2021/09/09 07:34:57;;;;;;;21.17;17.98;;;19.90;99.90;;;;;;4907344;28;38848;-80
2021/09/09 07:37:23;;;;;;;20.70;18.58;;;20.00;99.90;;;;;;4927569;28;37975;-80
2021/09/09 07:39:49;;;;;;;22.27;18.10;;;20.10;99.90;;;;;;4931098;29;37628;-81
2021/09/09 07:42:15;;;;;;;23.27;17.20;;;20.20;99.90;;;;;;4913112;28;40445;-81
2021/09/09 07:44:41;;;;;;;21.65;17.63;;;20.50;99.90;;;;;;4904145;29;39612;-81
2021/09/09 07:47:07;;;;;;;22.00;17.33;;;20.60;99.90;;;;;;4903128;29;37176;-80
2021/09/09 07:49:34;;;;;;;20.08;16.42;;;20.60;99.90;;;;;;4933333;29;37555;-80
2021/09/09 07:52:00;;;;;;;22.38;15.80;;;20.70;99.90;;;;;;4912732;29;39850;-81
2021/09/09 07:54:26;;;;;;;23.90;18.52;;;20.80;99.90;;;;;;4911217;29;39503;-80
2021/09/09 07:56:52;;;;;;;22.70;17.63;;;20.80;99.90;;;;;;4914925;29;39276;-81
2021/09/09 07:59:18;;;;;;;19.42;17.20;;;20.70;99.90;;;;;;4919473;28;37308;-80
2021/09/09 08:01:44;;;;;;;24.60;18.20;;;20.70;99.90;;;;;;4910511;29;40956;-81
2021/09/09 08:04:15;;;;;;;20.75;18.45;;;20.80;99.90;;;;;;4930388;28;39913;-81
2021/09/09 08:06:45;;;;;;;24.92;18.25;;;20.80;99.90;;;;;;4912339;29;39343;-81
2021/09/09 08:09:11;;;;;;;25.73;19.98;;;20.90;99.90;;;;;;4911269;29;37844;-79
2021/09/09 08:11:38;;;;;;;20.20;17.55;;;20.80;99.90;;;;;;4927329;28;38806;-80
2021/09/09 08:14:05;;;;;;;26.40;17.38;;;20.80;99.90;;;;;;4912563;29;40823;-80
2021/09/09 08:16:31;;;;;;;24.15;19.02;;;20.90;99.90;;;;;;4910796;29;38346;-81
2021/09/09 08:18:57;;;;;;;25.60;19.77;;;20.90;99.90;;;;;;4933368;29;37337;-80
2021/09/09 08:21:23;;;;;;;21.83;17.75;;;21.10;99.90;;;;;;4929783;28;38708;-81
2021/09/09 08:23:49;;;;;;;25.30;18.58;;;21.10;99.90;;;;;;4913010;29;37886;-80
2021/09/09 08:26:16;;;;;;;27.05;19.13;;;21.20;99.90;;;;;;4914897;29;39390;-80
2021/09/09 08:28:42;;;;;;;24.70;18.75;;;21.60;99.90;;;;;;4912844;29;36728;-80
2021/09/09 08:31:08;;;;;;;21.90;17.23;;;22.00;99.90;;;;;;4929048;28;39541;-79
2021/09/09 08:33:34;;;;;;;19.42;16.23;;;22.20;99.90;;;;;;4932742;28;38750;-83
2021/09/09 08:36:05;;;;;;;22.38;17.20;;;22.60;99.90;;;;;;4910418;28;37118;-82
2021/09/09 08:38:31;;;;;;;23.15;17.88;;;22.60;99.90;;;;;;4911574;29;47045;-81
2021/09/09 08:41:00;;;;;;;21.45;18.10;;;22.70;99.90;;;;;;4928874;28;39355;-82
2021/09/09 08:43:27;;;;;;;21.30;17.83;;;22.80;99.90;;;;;;4907645;28;39194;-81
2021/09/09 08:45:53;;;;;;;22.35;18.38;;;23.00;99.90;;;;;;4915379;29;37349;-81
2021/09/09 08:48:20;;;;;;;22.13;16.67;;;23.10;99.90;;;;;;4926823;28;36056;-82
2021/09/09 08:50:47;;;;;;;23.05;18.10;;;23.10;99.90;;;;;;4928530;28;38022;-80
2021/09/09 08:53:15;;;;;;;22.15;16.83;;;23.10;99.90;;;;;;4928611;28;39884;-82
2021/09/09 08:55:43;;;;;;;20.00;16.55;;;22.90;99.90;;;;;;4912182;29;39998;-80
2021/09/09 08:58:10;;;;;;;20.38;16.80;;;23.00;99.90;;;;;;4911226;29;36499;-80
2021/09/09 09:00:36;;;;;;;21.73;17.73;;;23.20;99.90;;;;;;4911493;28;38616;-82
2021/09/09 09:03:02;;;;;;;23.55;18.20;;;23.30;99.90;;;;;;4925842;28;38634;-81
2021/09/09 09:05:36;;;;;;;25.83;17.15;;;23.20;99.90;;;;;;4913902;28;37607;-82
2021/09/09 09:08:05;;;;;;;23.30;17.75;;;23.30;99.90;;;;;;4907573;28;36543;-79
2021/09/09 09:10:33;;;;;;;20.40;17.08;;;23.40;99.90;;;;;;4923670;28;37857;-81
2021/09/09 09:12:59;;;;;;;21.83;17.40;;;23.50;99.90;;;;;;4926555;29;39105;-80
2021/09/09 09:15:34;;;;;;;21.75;16.85;;;23.50;99.90;;;;;;4910596;28;36678;-81
2021/09/09 09:18:09;;;;;;;20.58;16.67;;;23.60;99.90;;;;;;4913232;29;38137;-82
2021/09/09 09:20:40;;;;;;;21.67;16.85;;;23.60;99.90;;;;;;4930800;28;46823;-82
2021/09/09 09:23:33;;;;;;;21.15;18.30;;;23.80;99.90;;;;;;4912176;29;38679;-82
2021/09/09 09:26:03;;;;;;;19.55;17.45;;;23.90;99.90;;;;;;4909427;29;40009;-82
2021/09/09 09:28:39;;;;;;;20.83;17.63;;;23.80;99.90;;;;;;4926608;28;48908;-82
2021/09/09 09:31:12;;;;;;;21.92;18.15;;;23.60;99.90;;;;;;4933258;28;39220;-82
2021/09/09 09:33:47;;;;;;;19.17;16.27;;;23.60;99.90;;;;;;4919570;29;38040;-82
2021/09/09 09:36:25;;;;;;;22.60;18.55;;;23.90;99.90;;;;;;4907895;29;38061;-82
2021/09/09 09:38:56;;;;;;;19.80;17.00;;;23.90;99.90;;;;;;4904890;29;37830;-82
2021/09/09 09:41:24;;;;;;;23.80;18.30;;;24.10;99.90;;;;;;4912715;29;39696;-82
2021/09/09 09:43:55;;;;;;;23.80;20.42;;;24.00;99.90;;;;;;4913714;29;39835;-82
2021/09/09 09:46:26;;;;;;;21.88;18.52;;;23.70;99.90;;;;;;4932539;28;38931;-81
2021/09/09 09:48:52;;;;;;;24.77;20.13;;;23.50;99.90;;;;;;4915757;29;37950;-82
2021/09/09 09:51:39;;;;;;;22.38;18.35;;;23.60;99.90;;;;;;4908570;29;39429;-81
2021/09/09 09:54:10;;;;;;;26.52;19.83;;;24.10;99.90;;;;;;4928000;29;39730;-82
2021/09/09 09:56:37;;;;;;;25.67;19.57;;;24.20;99.90;;;;;;4918324;29;38807;-82
2021/09/09 09:59:04;;;;;;;22.15;18.63;;;24.50;99.90;;;;;;4925010;28;37689;-82
2021/09/09 10:01:31;;;;;;;23.60;18.98;;;24.50;99.90;;;;;;4908801;29;46762;-82
2021/09/09 10:04:11;;;;;;;23.15;19.98;;;24.40;99.90;;;;;;4930132;28;40580;-82
2021/09/09 10:06:38;;;;;;;25.25;20.65;;;24.50;99.90;;;;;;4920158;29;47129;-83
2021/09/09 10:09:13;;;;;;;27.20;21.05;;;24.60;99.90;;;;;;4912554;29;38908;-82
2021/09/09 10:11:40;;;;;;;24.80;20.65;;;24.50;99.90;;;;;;4913646;29;37608;-82
2021/09/09 10:14:07;;;;;;;28.77;22.52;;;24.80;99.90;;;;;;4904080;29;40064;-82
2021/09/09 10:16:42;;;;;;;28.38;20.88;;;24.80;99.90;;;;;;4909169;29;39784;-82
2021/09/09 10:19:22;;;;;;;24.73;20.27;;;24.90;99.90;;;;;;4910720;28;38436;-81
2021/09/09 10:21:50;;;;;;;27.35;20.92;;;25.20;99.90;;;;;;4910697;29;39863;-83
2021/09/09 10:24:35;;;;;;;22.48;20.05;;;25.20;99.90;;;;;;4913633;29;38850;-82
2021/09/09 10:27:26;;;;;;;22.70;18.10;;;25.40;99.90;;;;;;4908821;29;38111;-81
2021/09/09 10:30:06;;;;;;;27.45;22.30;;;25.60;99.90;;;;;;4910321;29;38255;-80
2021/09/09 10:32:47;;;;;;;28.48;19.23;;;25.70;99.90;;;;;;4899691;29;47100;-80
2021/09/09 10:35:22;;;;;;;22.98;18.65;;;25.70;99.90;;;;;;4903317;29;37810;-79
2021/09/09 10:37:57;;;;;;;25.13;19.33;;;25.80;99.90;;;;;;4904055;29;38692;-80
2021/09/09 10:40:29;;;;;;;21.33;16.67;;;25.80;99.90;;;;;;4896245;28;37495;-80
2021/09/09 10:42:57;;;;;;;20.50;18.30;;;26.10;99.90;;;;;;4903801;29;40334;-81
2021/09/09 10:45:38;;;;;;;23.77;19.25;;;26.10;99.90;;;;;;4904195;29;40220;-80
2021/09/09 10:48:05;;;;;;;21.97;19.30;;;25.90;99.90;;;;;;4907362;29;38710;-80
2021/09/09 10:50:33;;;;;;;25.08;19.65;;;25.90;99.90;;;;;;4907375;28;37686;-80
2021/09/09 10:53:02;;;;;;;23.27;18.90;;;25.40;99.90;;;;;;4908216;28;38685;-80
2021/09/09 10:55:30;;;;;;;21.30;18.52;;;25.60;99.90;;;;;;4910789;28;38964;-80
2021/09/09 10:58:20;;;;;;;24.05;20.42;;;25.80;99.90;;;;;;4907864;28;38616;-81
2021/09/09 11:01:05;;;;;;;20.00;17.60;;;25.70;99.90;;;;;;4904320;29;48790;-80
2021/09/09 11:03:40;;;;;;;19.90;17.80;;;25.90;99.90;;;;;;4907317;28;48523;-80
2021/09/09 11:06:18;;;;;;;22.73;16.90;;;25.70;99.90;;;;;;4903026;29;37114;-80
2021/09/09 11:08:46;;;;;;;22.25;18.05;;;25.60;99.90;;;;;;4902362;29;37334;-79
2021/09/09 11:11:20;;;;;;;21.30;16.50;;;25.40;99.90;;;;;;4906837;29;37653;-79
2021/09/09 11:13:54;;;;;;;20.67;17.08;;;25.70;99.90;;;;;;4909882;28;37544;-79
2021/09/09 11:16:22;;;;;;;15.63;13.90;;;26.00;99.90;;;;;;4911326;29;38725;-78
2021/09/09 11:18:49;;;;;;;19.63;16.55;;;26.10;99.90;;;;;;4910457;29;40487;-79
2021/09/09 11:21:28;;;;;;;18.15;15.10;;;25.90;99.90;;;;;;4907677;29;36448;-79
2021/09/09 11:24:03;;;;;;;20.63;14.52;;;25.70;99.90;;;;;;4906025;29;38949;-79
2021/09/09 11:26:30;;;;;;;14.65;12.02;;;26.00;99.90;;;;;;4898062;29;48916;-78
2021/09/09 11:28:58;;;;;;;19.40;14.18;;;25.80;99.90;;;;;;4907047;29;37337;-79
2021/09/09 11:31:27;;;;;;;15.70;10.75;;;25.90;99.90;;;;;;4904886;29;36312;-79
2021/09/09 11:33:58;;;;;;;15.38;12.60;;;25.90;99.90;;;;;;4909089;29;37706;-79
2021/09/09 11:36:28;;;;;;;16.25;12.10;;;26.10;99.90;;;;;;4916329;29;37327;-78
2021/09/09 11:38:57;;;;;;;15.23;12.60;;;26.30;99.90;;;;;;4909164;28;38350;-79
2021/09/09 11:41:25;;;;;;;16.38;14.68;;;26.00;99.90;;;;;;4908849;29;39268;-79
2021/09/09 11:43:53;;;;;;;20.17;15.77;;;25.90;99.90;;;;;;4910479;29;38973;-79
2021/09/09 11:46:42;;;;;;;18.83;16.70;;;26.00;99.90;;;;;;4906848;29;40281;-79
2021/09/09 11:49:10;;;;;;;20.55;16.17;;;26.20;99.90;;;;;;4909872;29;40056;-79
2021/09/09 11:51:42;;;;;;;17.88;14.70;;;25.90;99.90;;;;;;4908058;29;37999;-80
2021/09/09 11:54:30;;;;;;;19.98;14.50;;;25.90;99.90;;;;;;4899938;29;39592;-79
2021/09/09 11:57:08;;;;;;;20.42;15.70;;;26.00;99.90;;;;;;4906831;29;39404;-80
2021/09/09 11:59:55;;;;;;;24.42;16.80;;;26.00;99.90;;;;;;4906158;29;47276;-80
2021/09/09 12:02:35;;;;;;;22.60;15.52;;;26.30;99.90;;;;;;4907249;29;37384;-81
2021/09/09 12:05:08;;;;;;;18.17;13.85;;;26.80;99.90;;;;;;4904445;29;39108;-80
2021/09/09 12:07:35;;;;;;;15.93;13.68;;;27.00;99.90;;;;;;4911933;28;47272;-80
2021/09/09 12:10:06;;;;;;;19.35;14.90;;;26.50;99.90;;;;;;4928660;28;38412;-79
2021/09/09 12:12:34;;;;;;;20.75;15.85;;;26.30;99.90;;;;;;4923608;29;48785;-80
2021/09/09 12:15:05;;;;;;;21.45;14.60;;;26.20;99.90;;;;;;4909339;29;40223;-82
2021/09/09 12:17:31;;;;;;;16.35;13.52;;;26.10;99.90;;;;;;4928039;28;49093;-79
2021/09/09 12:20:00;;;;;;;12.88;10.00;;;25.70;99.90;;;;;;4931660;29;38568;-81
2021/09/09 12:22:53;;;;;;;14.75;10.38;;;25.50;99.90;;;;;;4909271;28;46922;-82
2021/09/09 12:25:28;;;;;;;11.48;7.45;;;25.50;99.90;;;;;;4931970;28;38858;-82
2021/09/09 12:27:54;;;;;;;11.82;6.80;;;25.50;99.90;;;;;;4915434;29;40743;-82
2021/09/09 12:30:25;;;;;;;10.15;5.45;;;25.60;99.90;;;;;;4925194;28;38506;-82
2021/09/09 12:32:51;;;;;;;8.02;5.85;;;25.70;99.90;;;;;;4911143;29;36559;-79